sensor_id;sensor_type;location;lat;lon;timestamp;pressure;altitude;pressure_sealevel;temperature;humidity
23118;BME280;11728;50.624;6.014;2023-02-16T00:03:55;99175.00;;;7.00;63.70
23118;BME280;11728;50.624;6.014;2023-02-16T00:08:56;99175.84;;;6.99;64.08
23118;BME280;11728;50.624;6.014;2023-02-16T00:13:56;99176.78;;;7.05;64.41
23118;BME280;11728;50.624;6.014;2023-02-16T00:18:57;99170.66;;;7.08;64.42
23118;BME280;11728;50.624;6.014;2023-02-16T00:23:57;99170.69;;;7.20;64.81
23118;BME280;11728;50.624;6.014;2023-02-16T00:28:57;99169.00;;;7.25;63.86
23118;BME280;11728;50.624;6.014;2023-02-16T00:33:59;99165.47;;;7.21;63.67
23118;BME280;11728;50.624;6.014;2023-02-16T00:39:05;99162.88;;;7.27;62.98
23118;BME280;11728;50.624;6.014;2023-02-16T00:44:09;99167.25;;;7.30;62.30
23118;BME280;11728;50.624;6.014;2023-02-16T00:49:16;99160.19;;;7.20;62.19
23118;BME280;11728;50.624;6.014;2023-02-16T00:54:17;99164.59;;;7.18;62.02
23118;BME280;11728;50.624;6.014;2023-02-16T00:59:20;99161.91;;;7.03;61.95
23118;BME280;11728;50.624;6.014;2023-02-16T01:04:22;99157.47;;;6.99;61.85
23118;BME280;11728;50.624;6.014;2023-02-16T01:09:23;99146.09;;;6.97;62.00
23118;BME280;11728;50.624;6.014;2023-02-16T01:14:44;99144.31;;;6.94;61.91
23118;BME280;11728;50.624;6.014;2023-02-16T01:19:46;99140.84;;;6.94;61.63
23118;BME280;11728;50.624;6.014;2023-02-16T01:24:46;99143.47;;;6.94;61.24
23118;BME280;11728;50.624;6.014;2023-02-16T01:29:46;99135.59;;;7.01;60.86
23118;BME280;11728;50.624;6.014;2023-02-16T01:34:47;99132.16;;;7.04;60.74
23118;BME280;11728;50.624;6.014;2023-02-16T01:39:47;99134.72;;;6.95;60.45
23118;BME280;11728;50.624;6.014;2023-02-16T01:44:55;99130.31;;;6.91;60.88
23118;BME280;11728;50.624;6.014;2023-02-16T01:49:57;99113.66;;;6.87;61.02
23118;BME280;11728;50.624;6.014;2023-02-16T01:55:17;99118.06;;;6.88;61.41
23118;BME280;11728;50.624;6.014;2023-02-16T02:00:28;99111.00;;;6.83;61.58
23118;BME280;11728;50.624;6.014;2023-02-16T02:05:30;99116.25;;;6.82;61.92
23118;BME280;11728;50.624;6.014;2023-02-16T02:15:52;99107.50;;;6.78;62.31
23118;BME280;11728;50.624;6.014;2023-02-16T02:26:36;99095.19;;;6.68;63.98
23118;BME280;11728;50.624;6.014;2023-02-16T02:32:17;99090.78;;;6.61;64.65
23118;BME280;11728;50.624;6.014;2023-02-16T02:37:38;99080.25;;;6.54;66.05
23118;BME280;11728;50.624;6.014;2023-02-16T02:42:50;99070.63;;;6.51;66.20
23118;BME280;11728;50.624;6.014;2023-02-16T02:47:53;99063.63;;;6.53;67.14
23118;BME280;11728;50.624;6.014;2023-02-16T02:52:55;99067.97;;;6.48;67.69
23118;BME280;11728;50.624;6.014;2023-02-16T02:57:58;99063.59;;;6.46;68.74
23118;BME280;11728;50.624;6.014;2023-02-16T03:03:37;99054.00;;;6.48;69.55
23118;BME280;11728;50.624;6.014;2023-02-16T03:08:43;99050.44;;;6.43;69.93
23118;BME280;11728;50.624;6.014;2023-02-16T03:13:53;99054.81;;;6.36;70.16
23118;BME280;11728;50.624;6.014;2023-02-16T03:18:56;99056.47;;;6.22;70.35
23118;BME280;11728;50.624;6.014;2023-02-16T03:24:22;99045.81;;;6.02;70.89
23118;BME280;11728;50.624;6.014;2023-02-16T03:29:44;99040.59;;;6.03;71.26
23118;BME280;11728;50.624;6.014;2023-02-16T03:34:46;99030.97;;;6.04;71.63
23118;BME280;11728;50.624;6.014;2023-02-16T03:39:47;99036.19;;;5.99;71.95
23118;BME280;11728;50.624;6.014;2023-02-16T03:45:06;99035.28;;;5.93;71.91
23118;BME280;11728;50.624;6.014;2023-02-16T03:50:07;99048.34;;;5.90;71.84
23118;BME280;11728;50.624;6.014;2023-02-16T03:55:08;99035.28;;;5.93;72.67
23118;BME280;11728;50.624;6.014;2023-02-16T04:00:09;99044.00;;;5.92;72.84
23118;BME280;11728;50.624;6.014;2023-02-16T04:05:09;99038.78;;;5.93;73.16
23118;BME280;11728;50.624;6.014;2023-02-16T04:10:09;99032.59;;;5.82;72.88
23118;BME280;11728;50.624;6.014;2023-02-16T04:15:15;99040.41;;;5.78;73.94
23118;BME280;11728;50.624;6.014;2023-02-16T04:20:18;99031.63;;;5.76;73.53
23118;BME280;11728;50.624;6.014;2023-02-16T04:25:19;99034.16;;;5.68;73.83
23118;BME280;11728;50.624;6.014;2023-02-16T04:30:23;99035.97;;;5.74;74.55
23118;BME280;11728;50.624;6.014;2023-02-16T04:35:24;99029.81;;;5.70;74.40
23118;BME280;11728;50.624;6.014;2023-02-16T04:40:24;99037.69;;;5.67;74.59
23118;BME280;11728;50.624;6.014;2023-02-16T04:45:25;99029.81;;;5.70;74.86
23118;BME280;11728;50.624;6.014;2023-02-16T04:50:25;99031.63;;;5.76;75.06
23118;BME280;11728;50.624;6.014;2023-02-16T04:55:25;99022.13;;;5.85;75.15
23118;BME280;11728;50.624;6.014;2023-02-16T05:00:26;99029.94;;;5.78;75.16
23118;BME280;11728;50.624;6.014;2023-02-16T05:05:26;99029.03;;;5.77;75.08
23118;BME280;11728;50.624;6.014;2023-02-16T05:10:27;99031.59;;;5.73;75.09
23118;BME280;11728;50.624;6.014;2023-02-16T05:15:28;99025.47;;;5.74;75.20
23118;BME280;11728;50.624;6.014;2023-02-16T05:20:28;99033.41;;;5.77;75.08
23118;BME280;11728;50.624;6.014;2023-02-16T05:25:47;99028.09;;;5.71;74.95
23118;BME280;11728;50.624;6.014;2023-02-16T05:30:47;99035.97;;;5.71;75.05
23118;BME280;11728;50.624;6.014;2023-02-16T05:35:48;99031.69;;;5.82;75.27
23118;BME280;11728;50.624;6.014;2023-02-16T05:40:48;99034.50;;;6.06;74.51
23118;BME280;11728;50.624;6.014;2023-02-16T05:45:48;99024.13;;;6.28;74.07
23118;BME280;11728;50.624;6.014;2023-02-16T05:50:48;99028.63;;;6.47;73.44
23118;BME280;11728;50.624;6.014;2023-02-16T05:55:49;99033.03;;;6.54;72.71
23118;BME280;11728;50.624;6.014;2023-02-16T06:00:49;99037.38;;;6.50;72.81
23118;BME280;11728;50.624;6.014;2023-02-16T06:05:54;99039.16;;;6.60;72.82
23118;BME280;11728;50.624;6.014;2023-02-16T06:10:55;99034.00;;;6.78;72.27
23118;BME280;11728;50.624;6.014;2023-02-16T06:15:56;99037.59;;;6.95;71.22
23118;BME280;11728;50.624;6.014;2023-02-16T06:20:56;99028.00;;;7.09;70.63
23118;BME280;11728;50.624;6.014;2023-02-16T06:25:56;99028.03;;;7.19;70.08
23118;BME280;11728;50.624;6.014;2023-02-16T06:30:57;99025.41;;;7.28;69.34
23118;BME280;11728;50.624;6.014;2023-02-16T06:35:57;99032.41;;;7.38;69.07
23118;BME280;11728;50.624;6.014;2023-02-16T06:40:58;99036.84;;;7.47;69.15
23118;BME280;11728;50.624;6.014;2023-02-16T06:45:58;99039.47;;;7.56;69.04
23118;BME280;11728;50.624;6.014;2023-02-16T06:50:58;99028.94;;;7.64;68.65
23118;BME280;11728;50.624;6.014;2023-02-16T06:55:59;99033.34;;;7.74;68.88
23118;BME280;11728;50.624;6.014;2023-02-16T07:00:59;99028.94;;;7.85;68.67
23118;BME280;11728;50.624;6.014;2023-02-16T07:05:59;99029.81;;;7.92;68.85
23118;BME280;11728;50.624;6.014;2023-02-16T07:11:00;99027.19;;;8.02;69.36
23118;BME280;11728;50.624;6.014;2023-02-16T07:16:05;99022.78;;;8.10;69.69
23118;BME280;11728;50.624;6.014;2023-02-16T07:21:06;99022.81;;;8.18;69.83
23118;BME280;11728;50.624;6.014;2023-02-16T07:26:06;99021.94;;;8.26;70.33
23118;BME280;11728;50.624;6.014;2023-02-16T07:31:09;99027.16;;;8.32;70.42
23118;BME280;11728;50.624;6.014;2023-02-16T07:36:11;99025.38;;;8.37;70.21
23118;BME280;11728;50.624;6.014;2023-02-16T07:41:12;99034.16;;;8.48;70.73
23118;BME280;11728;50.624;6.014;2023-02-16T07:46:12;99034.09;;;8.63;70.32
23118;BME280;11728;50.624;6.014;2023-02-16T07:51:20;99054.25;;;8.76;70.06
23118;BME280;11728;50.624;6.014;2023-02-16T07:56:22;99056.84;;;8.88;69.93
23118;BME280;11728;50.624;6.014;2023-02-16T08:01:24;99056.78;;;9.03;69.86
23118;BME280;11728;50.624;6.014;2023-02-16T08:06:24;99064.63;;;9.12;69.98
23118;BME280;11728;50.624;6.014;2023-02-16T08:11:25;99049.59;;;9.25;69.96
23118;BME280;11728;50.624;6.014;2023-02-16T08:16:26;99051.28;;;9.47;69.90
23118;BME280;11728;50.624;6.014;2023-02-16T08:21:30;99051.94;;;9.73;69.40
23118;BME280;11728;50.624;6.014;2023-02-16T08:26:37;99052.44;;;10.24;68.76
23118;BME280;11728;50.624;6.014;2023-02-16T08:31:38;99053.63;;;10.77;66.76
23118;BME280;11728;50.624;6.014;2023-02-16T08:36:40;99050.84;;;10.89;66.92
23118;BME280;11728;50.624;6.014;2023-02-16T08:41:42;99031.72;;;11.36;65.74
23118;BME280;11728;50.624;6.014;2023-02-16T08:46:44;99036.22;;;12.39;64.49
23118;BME280;11728;50.624;6.014;2023-02-16T08:51:48;99030.66;;;13.78;59.92
23118;BME280;11728;50.624;6.014;2023-02-16T08:56:49;99035.22;;;13.73;59.21
23118;BME280;11728;50.624;6.014;2023-02-16T09:01:50;99039.00;;;12.80;60.12
23118;BME280;11728;50.624;6.014;2023-02-16T09:06:51;99042.72;;;12.22;61.54
23118;BME280;11728;50.624;6.014;2023-02-16T09:11:51;99044.22;;;11.85;62.59
23118;BME280;11728;50.624;6.014;2023-02-16T09:16:52;99042.09;;;11.52;63.66
23118;BME280;11728;50.624;6.014;2023-02-16T09:21:52;99061.69;;;11.36;64.41
23118;BME280;11728;50.624;6.014;2023-02-16T09:26:55;99062.78;;;11.20;65.05
23118;BME280;11728;50.624;6.014;2023-02-16T09:31:56;99077.19;;;11.63;66.77
23118;BME280;11728;50.624;6.014;2023-02-16T09:36:56;99076.03;;;12.36;65.78
23118;BME280;11728;50.624;6.014;2023-02-16T09:42:14;99077.34;;;12.10;65.41
23118;BME280;11728;50.624;6.014;2023-02-16T09:47:25;99086.72;;;12.30;64.73
23118;BME280;11728;50.624;6.014;2023-02-16T09:52:38;99092.38;;;12.08;63.43
23118;BME280;11728;50.624;6.014;2023-02-16T10:08:48;99109.19;;;12.05;64.34
23118;BME280;11728;50.624;6.014;2023-02-16T10:13:52;99106.59;;;12.04;64.10
23118;BME280;11728;50.624;6.014;2023-02-16T10:18:57;99112.84;;;11.98;63.98
23118;BME280;11728;50.624;6.014;2023-02-16T10:24:03;99119.06;;;11.96;64.34
23118;BME280;11728;50.624;6.014;2023-02-16T10:29:13;99121.16;;;11.73;64.98
23118;BME280;11728;50.624;6.014;2023-02-16T10:40:00;99108.03;;;11.65;66.41
23118;BME280;11728;50.624;6.014;2023-02-16T10:50:29;99099.88;;;11.82;65.71
23118;BME280;11728;50.624;6.014;2023-02-16T10:55:32;99088.16;;;11.96;65.21
23118;BME280;11728;50.624;6.014;2023-02-16T11:06:26;99083.69;;;12.00;65.13
23118;BME280;11728;50.624;6.014;2023-02-16T11:11:37;99087.19;;;12.02;65.12
23118;BME280;11728;50.624;6.014;2023-02-16T11:16:38;99080.09;;;12.04;65.25
23118;BME280;11728;50.624;6.014;2023-02-16T11:21:48;99080.97;;;12.04;65.96
23118;BME280;11728;50.624;6.014;2023-02-16T11:27:25;99078.25;;;12.09;66.44
23118;BME280;11728;50.624;6.014;2023-02-16T11:32:25;99061.41;;;12.62;65.51
23118;BME280;11728;50.624;6.014;2023-02-16T11:37:30;99057.97;;;13.04;64.18
23118;BME280;11728;50.624;6.014;2023-02-16T11:42:43;99054.22;;;13.12;63.37
23118;BME280;11728;50.624;6.014;2023-02-16T11:47:52;99064.16;;;13.03;63.78
23118;BME280;11728;50.624;6.014;2023-02-16T11:53:12;99050.34;;;12.86;64.39
23118;BME280;11728;50.624;6.014;2023-02-16T11:58:24;99047.06;;;12.74;64.59
23118;BME280;11728;50.624;6.014;2023-02-16T12:08:55;99023.41;;;12.63;65.14
23118;BME280;11728;50.624;6.014;2023-02-16T12:19:32;99018.00;;;12.69;65.79
23118;BME280;11728;50.624;6.014;2023-02-16T12:29:57;99029.75;;;12.56;67.82
23118;BME280;11728;50.624;6.014;2023-02-16T12:40:08;99013.97;;;13.35;66.98
23118;BME280;11728;50.624;6.014;2023-02-16T12:45:17;99011.13;;;13.03;67.02
23118;BME280;11728;50.624;6.014;2023-02-16T12:50:30;99001.69;;;12.87;67.63
23118;BME280;11728;50.624;6.014;2023-02-16T12:55:37;99000.88;;;13.27;67.13
23118;BME280;11728;50.624;6.014;2023-02-16T13:00:48;98980.47;;;13.67;65.70
23118;BME280;11728;50.624;6.014;2023-02-16T13:06:10;98983.69;;;14.16;64.64
23118;BME280;11728;50.624;6.014;2023-02-16T13:11:39;98980.44;;;14.38;62.13
23118;BME280;11728;50.624;6.014;2023-02-16T13:16:43;98962.63;;;14.72;59.37
23118;BME280;11728;50.624;6.014;2023-02-16T13:38:08;98916.56;;;17.04;49.33
23118;BME280;11728;50.624;6.014;2023-02-16T13:48:38;98917.13;;;17.58;47.54
23118;BME280;11728;50.624;6.014;2023-02-16T13:54:03;98905.19;;;18.68;46.46
23118;BME280;11728;50.624;6.014;2023-02-16T14:09:31;98909.66;;;18.48;44.79
23118;BME280;11728;50.624;6.014;2023-02-16T14:14:37;98903.53;;;16.96;46.07
23118;BME280;11728;50.624;6.014;2023-02-16T14:19:57;98911.13;;;16.61;47.14
23118;BME280;11728;50.624;6.014;2023-02-16T14:25:48;98894.84;;;16.69;47.34
23118;BME280;11728;50.624;6.014;2023-02-16T14:30:56;98895.38;;;16.31;47.35
23118;BME280;11728;50.624;6.014;2023-02-16T14:41:00;98892.63;;;16.57;47.40
23118;BME280;11728;50.624;6.014;2023-02-16T14:56:51;98881.28;;;16.02;49.61
23118;BME280;11728;50.624;6.014;2023-02-16T15:01:53;98884.13;;;15.71;50.31
23118;BME280;11728;50.624;6.014;2023-02-16T15:06:55;98876.44;;;15.62;50.70
23118;BME280;11728;50.624;6.014;2023-02-16T15:12:04;98873.81;;;15.35;51.30
23118;BME280;11728;50.624;6.014;2023-02-16T15:17:32;98864.34;;;14.98;52.08
23118;BME280;11728;50.624;6.014;2023-02-16T15:22:34;98878.31;;;14.75;53.10
23118;BME280;11728;50.624;6.014;2023-02-16T15:27:37;98874.63;;;14.52;53.91
23118;BME280;11728;50.624;6.014;2023-02-16T15:32:38;98883.69;;;14.15;54.74
23118;BME280;11728;50.624;6.014;2023-02-16T15:37:38;98857.84;;;13.86;55.59
23118;BME280;11728;50.624;6.014;2023-02-16T15:42:42;98867.97;;;13.73;56.35
23118;BME280;11728;50.624;6.014;2023-02-16T15:47:43;98876.97;;;13.67;56.76
23118;BME280;11728;50.624;6.014;2023-02-16T15:52:44;98873.97;;;13.46;57.47
23118;BME280;11728;50.624;6.014;2023-02-16T15:57:44;98877.22;;;13.22;58.33
23118;BME280;11728;50.624;6.014;2023-02-16T16:02:50;98881.84;;;13.12;59.15
23118;BME280;11728;50.624;6.014;2023-02-16T16:07:53;98872.25;;;13.08;59.28
23118;BME280;11728;50.624;6.014;2023-02-16T16:13:01;98888.34;;;13.01;60.41
23118;BME280;11728;50.624;6.014;2023-02-16T16:18:02;98891.00;;;13.01;60.63
23118;BME280;11728;50.624;6.014;2023-02-16T16:23:23;98873.59;;;12.88;61.51
23118;BME280;11728;50.624;6.014;2023-02-16T16:33:27;98868.53;;;12.76;62.42
23118;BME280;11728;50.624;6.014;2023-02-16T16:38:47;98870.50;;;12.68;62.65
23118;BME280;11728;50.624;6.014;2023-02-16T16:43:55;98871.50;;;12.63;63.01
23118;BME280;11728;50.624;6.014;2023-02-16T16:49:00;98866.47;;;12.51;63.34
23118;BME280;11728;50.624;6.014;2023-02-16T16:59:23;98872.88;;;12.39;63.88
23118;BME280;11728;50.624;6.014;2023-02-16T17:04:24;98874.72;;;12.36;64.02
23118;BME280;11728;50.624;6.014;2023-02-16T17:09:25;98870.28;;;12.36;63.98
23118;BME280;11728;50.624;6.014;2023-02-16T17:14:25;98873.97;;;12.31;63.75
23118;BME280;11728;50.624;6.014;2023-02-16T17:19:26;98889.09;;;12.25;63.96
23118;BME280;11728;50.624;6.014;2023-02-16T17:24:28;98881.41;;;12.11;64.19
23118;BME280;11728;50.624;6.014;2023-02-16T17:29:28;98903.56;;;12.06;64.34
23118;BME280;11728;50.624;6.014;2023-02-16T17:34:29;98896.75;;;11.93;65.36
23118;BME280;11728;50.624;6.014;2023-02-16T17:39:29;98918.47;;;11.63;67.24
23118;BME280;11728;50.624;6.014;2023-02-16T17:44:30;98917.97;;;11.39;69.62
23118;BME280;11728;50.624;6.014;2023-02-16T17:49:30;98903.19;;;11.26;70.96
23118;BME280;11728;50.624;6.014;2023-02-16T17:54:30;98894.56;;;11.13;71.00
23118;BME280;11728;50.624;6.014;2023-02-16T17:59:31;98907.78;;;11.13;70.09
23118;BME280;11728;50.624;6.014;2023-02-16T18:04:32;98908.66;;;11.15;67.81
23118;BME280;11728;50.624;6.014;2023-02-16T18:09:35;98921.94;;;11.11;68.18
23118;BME280;11728;50.624;6.014;2023-02-16T18:14:35;98933.47;;;11.05;69.54
23118;BME280;11728;50.624;6.014;2023-02-16T18:19:36;98925.78;;;10.87;72.04
23118;BME280;11728;50.624;6.014;2023-02-16T18:24:36;98936.47;;;10.80;73.72
23118;BME280;11728;50.624;6.014;2023-02-16T18:29:36;98941.00;;;10.71;75.61
23118;BME280;11728;50.624;6.014;2023-02-16T18:34:37;98944.75;;;10.53;77.17
23118;BME280;11728;50.624;6.014;2023-02-16T18:39:37;98939.72;;;10.31;80.34
23118;BME280;11728;50.624;6.014;2023-02-16T18:44:39;98938.09;;;10.21;82.70
23118;BME280;11728;50.624;6.014;2023-02-16T18:49:40;98945.19;;;10.16;84.58
23118;BME280;11728;50.624;6.014;2023-02-16T18:54:41;98936.47;;;10.08;85.72
23118;BME280;11728;50.624;6.014;2023-02-16T18:59:42;98946.09;;;10.10;85.65
23118;BME280;11728;50.624;6.014;2023-02-16T19:04:42;98943.56;;;10.03;86.54
23118;BME280;11728;50.624;6.014;2023-02-16T19:09:42;98943.56;;;10.00;87.42
23118;BME280;11728;50.624;6.014;2023-02-16T19:14:43;98939.16;;;10.03;87.79
23118;BME280;11728;50.624;6.014;2023-02-16T19:19:43;98942.72;;;9.99;88.67
23118;BME280;11728;50.624;6.014;2023-02-16T19:24:43;98940.06;;;10.01;89.25
23118;BME280;11728;50.624;6.014;2023-02-16T19:29:44;98932.16;;;10.02;89.47
23118;BME280;11728;50.624;6.014;2023-02-16T19:34:46;98931.19;;;10.08;89.45
23118;BME280;11728;50.624;6.014;2023-02-16T19:39:46;98925.88;;;10.11;89.58
23118;BME280;11728;50.624;6.014;2023-02-16T19:44:47;98909.16;;;10.12;90.45
23118;BME280;11728;50.624;6.014;2023-02-16T19:49:47;98916.19;;;10.13;90.66
23118;BME280;11728;50.624;6.014;2023-02-16T19:54:47;98910.00;;;10.14;91.28
23118;BME280;11728;50.624;6.014;2023-02-16T19:59:48;98914.44;;;10.10;92.78
23118;BME280;11728;50.624;6.014;2023-02-16T20:04:48;98909.97;;;10.17;93.81
23118;BME280;11728;50.624;6.014;2023-02-16T20:09:49;98910.88;;;10.17;94.20
23118;BME280;11728;50.624;6.014;2023-02-16T20:14:49;98910.78;;;10.22;95.00
23118;BME280;11728;50.624;6.014;2023-02-16T20:19:50;98904.53;;;10.29;94.93
23118;BME280;11728;50.624;6.014;2023-02-16T20:24:50;98892.16;;;10.35;94.89
23118;BME280;11728;50.624;6.014;2023-02-16T20:29:51;98895.66;;;10.37;94.86
23118;BME280;11728;50.624;6.014;2023-02-16T20:34:51;98893.81;;;10.44;94.84
23118;BME280;11728;50.624;6.014;2023-02-16T20:39:52;98903.38;;;10.51;94.69
23118;BME280;11728;50.624;6.014;2023-02-16T20:44:52;98891.94;;;10.52;94.52
23118;BME280;11728;50.624;6.014;2023-02-16T20:49:52;98888.41;;;10.54;94.40
23118;BME280;11728;50.624;6.014;2023-02-16T20:54:53;98891.06;;;10.54;94.65
23118;BME280;11728;50.624;6.014;2023-02-16T20:59:54;98883.00;;;10.62;94.46
23118;BME280;11728;50.624;6.014;2023-02-16T21:04:54;98883.03;;;10.59;94.33
23118;BME280;11728;50.624;6.014;2023-02-16T21:09:55;98887.38;;;10.64;94.37
23118;BME280;11728;50.624;6.014;2023-02-16T21:14:55;98883.88;;;10.62;94.17
23118;BME280;11728;50.624;6.014;2023-02-16T21:19:56;98866.25;;;10.64;94.49
23118;BME280;11728;50.624;6.014;2023-02-16T21:24:56;98875.88;;;10.67;94.39
23118;BME280;11728;50.624;6.014;2023-02-16T21:29:57;98879.41;;;10.69;94.15
23118;BME280;11728;50.624;6.014;2023-02-16T21:34:57;98870.59;;;10.67;94.35
23118;BME280;11728;50.624;6.014;2023-02-16T21:39:58;98871.50;;;10.67;94.47
23118;BME280;11728;50.624;6.014;2023-02-16T21:45:17;98866.97;;;10.73;94.51
23118;BME280;11728;50.624;6.014;2023-02-16T21:50:17;98864.38;;;10.72;94.41
23118;BME280;11728;50.624;6.014;2023-02-16T21:55:18;98854.69;;;10.73;94.30
23118;BME280;11728;50.624;6.014;2023-02-16T22:00:37;98858.19;;;10.73;94.39
23118;BME280;11728;50.624;6.014;2023-02-16T22:05:38;98853.75;;;10.76;94.01
23118;BME280;11728;50.624;6.014;2023-02-16T22:10:39;98858.13;;;10.77;94.04
23118;BME280;11728;50.624;6.014;2023-02-16T22:15:39;98852.88;;;10.76;94.03
23118;BME280;11728;50.624;6.014;2023-02-16T22:20:40;98852.84;;;10.77;94.03
23118;BME280;11728;50.624;6.014;2023-02-16T22:25:40;98857.22;;;10.80;93.92
23118;BME280;11728;50.624;6.014;2023-02-16T22:30:40;98845.75;;;10.81;94.12
23118;BME280;11728;50.624;6.014;2023-02-16T22:35:41;98852.75;;;10.83;93.55
23118;BME280;11728;50.624;6.014;2023-02-16T22:40:41;98841.31;;;10.84;93.73
23118;BME280;11728;50.624;6.014;2023-02-16T22:45:42;98842.16;;;10.85;93.97
23118;BME280;11728;50.624;6.014;2023-02-16T22:50:42;98842.97;;;10.88;93.81
23118;BME280;11728;50.624;6.014;2023-02-16T22:55:42;98847.44;;;10.86;93.95
23118;BME280;11728;50.624;6.014;2023-02-16T23:00:47;98861.56;;;10.82;94.46
23118;BME280;11728;50.624;6.014;2023-02-16T23:05:47;98867.81;;;10.78;95.12
23118;BME280;11728;50.624;6.014;2023-02-16T23:10:48;98863.44;;;10.76;96.17
23118;BME280;11728;50.624;6.014;2023-02-16T23:16:10;98869.69;;;10.71;96.91
23118;BME280;11728;50.624;6.014;2023-02-16T23:21:19;98869.78;;;10.65;97.52
23118;BME280;11728;50.624;6.014;2023-02-16T23:26:22;98861.91;;;10.59;99.03
23118;BME280;11728;50.624;6.014;2023-02-16T23:31:23;98857.63;;;10.53;100.00
23118;BME280;11728;50.624;6.014;2023-02-16T23:36:23;98861.22;;;10.45;100.00
23118;BME280;11728;50.624;6.014;2023-02-16T23:41:24;98866.50;;;10.46;100.00
23118;BME280;11728;50.624;6.014;2023-02-16T23:46:24;98870.91;;;10.46;100.00
23118;BME280;11728;50.624;6.014;2023-02-16T23:51:25;98873.56;;;10.44;100.00
23118;BME280;11728;50.624;6.014;2023-02-16T23:56:26;98863.88;;;10.45;100.00
